createdAt,value
2018-05-03T00:00:01.756Z,14.84
2018-05-03T00:01:01.756Z,14.87
2018-05-03T00:02:01.798Z,14.99
2018-05-03T00:03:01.783Z,14.91
2018-05-03T00:04:01.791Z,15.02
2018-05-03T00:05:01.808Z,14.91
2018-05-03T00:06:01.813Z,14.98
2018-05-03T00:07:01.826Z,15.02
2018-05-03T00:08:01.841Z,14.91
2018-05-03T00:09:01.847Z,14.86
2018-05-03T00:10:01.880Z,14.90
2018-05-03T00:11:01.865Z,14.86
2018-05-03T00:12:01.876Z,14.84
2018-05-03T00:13:01.891Z,14.84
2018-05-03T00:14:01.898Z,14.94
2018-05-03T00:15:01.917Z,14.86
2018-05-03T00:16:01.932Z,14.84
2018-05-03T00:17:01.936Z,14.90
2018-05-03T00:18:01.948Z,14.84
2018-05-03T00:19:01.960Z,14.86
2018-05-03T00:20:01.970Z,14.93
2018-05-03T00:21:01.978Z,14.91
2018-05-03T00:22:01.994Z,14.90
2018-05-03T00:23:02.061Z,14.91
2018-05-03T00:24:02.010Z,14.86
2018-05-03T00:25:02.019Z,14.88
2018-05-03T00:26:02.032Z,14.91
2018-05-03T00:27:02.047Z,14.84
2018-05-03T00:28:02.060Z,14.90
2018-05-03T00:29:02.063Z,14.91
2018-05-03T00:30:02.076Z,14.88
2018-05-03T00:31:02.085Z,14.84
2018-05-03T00:32:02.104Z,14.83
2018-05-03T00:33:02.109Z,14.88
2018-05-03T00:34:02.119Z,14.78
2018-05-03T00:35:02.140Z,14.86
2018-05-03T00:36:02.141Z,14.83
2018-05-03T00:37:02.163Z,14.72
2018-05-03T00:38:02.167Z,14.74
2018-05-03T00:39:02.178Z,14.75
2018-05-03T00:40:02.191Z,14.64
2018-05-03T00:41:02.195Z,14.60
2018-05-03T00:42:02.207Z,14.44
2018-05-03T00:43:02.227Z,14.53
2018-05-03T00:44:02.230Z,14.43
2018-05-03T00:45:02.243Z,14.31
2018-05-03T00:46:02.252Z,14.19
2018-05-03T00:47:02.268Z,14.16
2018-05-03T00:48:02.276Z,14.28
2018-05-03T00:49:02.311Z,14.25
2018-05-03T00:50:02.300Z,14.24
2018-05-03T00:51:02.304Z,14.44
2018-05-03T00:52:02.325Z,14.43
2018-05-03T00:53:02.328Z,14.42
2018-05-03T00:54:02.338Z,14.49
2018-05-03T00:55:02.374Z,14.52
2018-05-03T00:56:02.369Z,14.44
2018-05-03T00:57:02.371Z,14.50
2018-05-03T00:58:02.384Z,14.43
2018-05-03T00:59:02.393Z,14.44
2018-05-03T01:00:02.405Z,14.49
2018-05-03T01:01:02.415Z,14.46
2018-05-03T01:02:02.428Z,14.50
2018-05-03T01:03:02.438Z,14.62
2018-05-03T01:04:02.478Z,14.60
2018-05-03T01:05:02.458Z,14.61
2018-05-03T01:06:02.549Z,14.68
2018-05-03T01:07:02.479Z,14.64
2018-05-03T01:08:02.491Z,14.71
2018-05-03T01:09:02.507Z,14.67
2018-05-03T01:10:02.524Z,14.62
2018-05-03T01:11:02.523Z,14.60
2018-05-03T01:12:02.531Z,14.71
2018-05-03T01:13:02.549Z,14.72
2018-05-03T01:14:02.555Z,14.61
2018-05-03T01:15:02.568Z,14.57
2018-05-03T01:16:02.588Z,14.57
2018-05-03T01:17:02.598Z,14.54
2018-05-03T01:18:02.600Z,14.52
2018-05-03T01:19:02.618Z,14.57
2018-05-03T01:20:02.629Z,14.56
2018-05-03T01:21:02.632Z,14.56
2018-05-03T01:22:02.651Z,14.53
2018-05-03T01:23:02.655Z,14.54
2018-05-03T01:24:02.670Z,14.56
2018-05-03T01:25:02.678Z,14.43
2018-05-03T01:26:02.689Z,14.57
2018-05-03T01:27:02.699Z,14.46
2018-05-03T01:28:02.708Z,14.46
2018-05-03T01:29:02.720Z,14.47
2018-05-03T01:30:02.741Z,14.47
2018-05-03T01:31:02.741Z,14.53
2018-05-03T01:32:02.753Z,14.43
2018-05-03T01:33:02.762Z,14.44
2018-05-03T01:34:02.773Z,14.53
2018-05-03T01:35:02.787Z,14.42
2018-05-03T01:36:02.803Z,14.43
2018-05-03T01:37:02.808Z,14.42
2018-05-03T01:38:02.822Z,14.44
2018-05-03T01:39:02.829Z,14.37
2018-05-03T01:40:02.843Z,14.43
2018-05-03T01:41:02.854Z,14.42
2018-05-03T01:42:02.862Z,14.32
2018-05-03T01:43:02.878Z,14.27
2018-05-03T01:44:02.883Z,14.27
2018-05-03T01:45:02.895Z,14.27
2018-05-03T01:46:02.900Z,14.29
2018-05-03T01:47:02.913Z,14.27
2018-05-03T01:48:02.927Z,14.27
2018-05-03T01:49:02.947Z,14.27
2018-05-03T01:50:02.947Z,14.29
2018-05-03T01:51:02.959Z,14.27
2018-05-03T01:52:02.968Z,14.34
2018-05-03T01:53:02.979Z,14.34
2018-05-03T01:54:02.989Z,14.32
2018-05-03T01:55:03.005Z,14.29
2018-05-03T01:56:03.011Z,14.27
2018-05-03T01:57:03.024Z,14.29
2018-05-03T01:58:03.032Z,14.34
2018-05-03T01:59:03.043Z,14.25
2018-05-03T02:00:03.052Z,14.25
2018-05-03T02:01:03.081Z,14.16
2018-05-03T02:02:03.075Z,14.17
2018-05-03T02:03:03.089Z,14.25
2018-05-03T02:04:03.107Z,14.16
2018-05-03T02:05:03.109Z,14.19
2018-05-03T02:06:03.124Z,14.29
2018-05-03T02:07:03.128Z,14.29
2018-05-03T02:08:03.154Z,14.29
2018-05-03T02:09:03.149Z,14.32
2018-05-03T02:10:03.162Z,14.34
2018-05-03T02:11:03.172Z,14.34
2018-05-03T02:12:03.190Z,14.42
2018-05-03T02:13:03.201Z,14.39
2018-05-03T02:14:03.203Z,14.49
2018-05-03T02:15:03.224Z,14.39
2018-05-03T02:16:03.223Z,14.38
2018-05-03T02:17:03.238Z,14.25
2018-05-03T02:18:03.248Z,14.19
2018-05-03T02:19:03.259Z,14.29
2018-05-03T02:20:03.269Z,14.35
2018-05-03T02:21:03.283Z,14.21
2018-05-03T02:22:03.291Z,14.28
2018-05-03T02:23:03.300Z,14.06
2018-05-03T02:24:03.310Z,13.79
2018-05-03T02:25:03.319Z,13.71
2018-05-03T02:26:03.331Z,13.73
2018-05-03T02:27:03.348Z,13.67
2018-05-03T02:28:03.357Z,13.63
2018-05-03T02:29:03.379Z,13.65
2018-05-03T02:30:03.376Z,13.73
2018-05-03T02:31:03.387Z,13.73
2018-05-03T02:32:03.398Z,13.73
2018-05-03T02:33:03.411Z,13.77
2018-05-03T02:34:03.420Z,13.73
2018-05-03T02:35:03.436Z,13.77
2018-05-03T02:36:03.440Z,13.83
2018-05-03T02:37:03.471Z,13.89
2018-05-03T02:38:03.460Z,13.89
2018-05-03T02:39:03.470Z,13.91
2018-05-03T02:40:03.489Z,13.89
2018-05-03T02:41:03.493Z,13.84
2018-05-03T02:42:03.504Z,13.89
2018-05-03T02:43:03.517Z,14.01
2018-05-03T02:44:03.526Z,14.01
2018-05-03T02:45:03.536Z,14.01
2018-05-03T02:46:03.553Z,13.94
2018-05-03T02:47:03.562Z,13.98
2018-05-03T02:48:03.568Z,13.96
2018-05-03T02:49:03.583Z,14.02
2018-05-03T02:50:03.591Z,14.06
2018-05-03T02:51:03.601Z,14.04
2018-05-03T02:52:03.612Z,14.09
2018-05-03T02:53:03.641Z,14.10
2018-05-03T02:54:03.633Z,14.10
2018-05-03T02:55:03.643Z,14.06
2018-05-03T02:56:03.655Z,14.02
2018-05-03T02:57:03.667Z,14.12
2018-05-03T02:58:03.674Z,14.07
2018-05-03T02:59:03.689Z,14.14
2018-05-03T03:00:03.695Z,14.10
2018-05-03T03:01:03.705Z,14.12
2018-05-03T03:02:03.715Z,14.12
2018-05-03T03:03:03.727Z,14.13
2018-05-03T03:04:03.764Z,14.16
2018-05-03T03:05:03.753Z,14.10
2018-05-03T03:06:03.755Z,14.12
2018-05-03T03:07:03.766Z,14.16
2018-05-03T03:08:03.777Z,14.10
2018-05-03T03:09:03.791Z,14.10
2018-05-03T03:10:03.802Z,14.12
2018-05-03T03:11:03.809Z,14.14
2018-05-03T03:12:03.831Z,14.04
2018-05-03T03:13:03.830Z,14.06
2018-05-03T03:14:03.843Z,14.04
2018-05-03T03:15:03.852Z,13.98
2018-05-03T03:16:03.868Z,14.01
2018-05-03T03:17:03.878Z,14.06
2018-05-03T03:18:03.886Z,14.04
2018-05-03T03:19:03.903Z,14.09
2018-05-03T03:20:03.906Z,14.09
2018-05-03T03:21:03.916Z,14.16
2018-05-03T03:22:03.944Z,14.09
2018-05-03T03:23:03.941Z,14.09
2018-05-03T03:24:03.961Z,14.07
2018-05-03T03:25:03.960Z,13.99
2018-05-03T03:26:03.974Z,14.04
2018-05-03T03:27:03.980Z,14.12
2018-05-03T03:28:03.990Z,14.17
2018-05-03T03:29:03.999Z,14.24
2018-05-03T03:30:04.021Z,14.16
2018-05-03T03:31:04.022Z,14.17
2018-05-03T03:32:04.033Z,14.17
2018-05-03T03:33:04.040Z,14.21
2018-05-03T03:34:04.055Z,14.07
2018-05-03T03:35:04.069Z,13.92
2018-05-03T03:36:04.083Z,13.92
2018-05-03T03:37:04.088Z,13.98
2018-05-03T03:38:04.102Z,13.96
2018-05-03T03:39:04.109Z,13.92
2018-05-03T03:40:04.117Z,13.99
2018-05-03T03:41:04.129Z,13.92
2018-05-03T03:42:04.150Z,13.99
2018-05-03T03:43:04.150Z,14.01
2018-05-03T03:44:04.157Z,14.02
2018-05-03T03:45:04.171Z,14.01
2018-05-03T03:46:04.182Z,14.06
2018-05-03T03:47:04.191Z,14.06
2018-05-03T03:48:04.209Z,14.02
2018-05-03T03:49:04.216Z,13.98
2018-05-03T03:50:04.224Z,13.98
2018-05-03T03:51:04.253Z,13.96
2018-05-03T03:52:04.243Z,14.02
2018-05-03T03:53:04.263Z,13.98
2018-05-03T03:54:04.265Z,14.02
2018-05-03T03:55:04.276Z,14.04
2018-05-03T03:56:04.287Z,14.04
2018-05-03T03:57:04.304Z,14.01
2018-05-03T03:58:04.306Z,13.99
2018-05-03T03:59:04.399Z,14.09
2018-05-03T04:00:04.329Z,14.07
2018-05-03T04:01:04.340Z,14.07
2018-05-03T04:02:04.346Z,14.01
2018-05-03T04:03:04.365Z,14.06
2018-05-03T04:04:04.374Z,14.02
2018-05-03T04:05:04.386Z,14.04
2018-05-03T04:06:04.389Z,14.01
2018-05-03T04:07:04.402Z,14.04
2018-05-03T04:08:04.419Z,13.98
2018-05-03T04:09:05.440Z,14.02
2018-05-03T04:11:47.089Z,14.04
2018-05-03T04:12:38.938Z,13.99
2018-05-03T04:14:32.222Z,13.95
2018-05-03T04:15:32.464Z,13.87
2018-05-03T04:17:48.781Z,13.87
2018-05-03T04:18:49.576Z,13.99
2018-05-03T04:20:55.808Z,13.79
2018-05-03T04:21:56.628Z,13.91
2018-05-03T04:23:50.212Z,13.99
2018-05-03T04:24:50.048Z,13.99
2018-05-03T04:26:55.548Z,13.98
2018-05-03T04:27:55.769Z,13.92
2018-05-03T04:28:55.889Z,13.92
2018-05-03T04:29:55.601Z,13.91
2018-05-03T04:30:55.598Z,13.88
2018-05-03T04:31:55.627Z,13.76
2018-05-03T04:32:55.613Z,13.69
2018-05-03T04:33:55.617Z,13.79
2018-05-03T04:34:55.625Z,13.74
2018-05-03T04:35:55.682Z,13.79
2018-05-03T04:36:55.644Z,13.77
2018-05-03T04:37:55.656Z,13.94
2018-05-03T04:38:56.060Z,13.88
2018-05-03T04:39:55.677Z,13.95
2018-05-03T04:40:55.685Z,13.88
2018-05-03T04:41:55.770Z,13.95
2018-05-03T04:42:55.710Z,13.98
2018-05-03T04:43:55.725Z,14.02
2018-05-03T04:44:55.806Z,14.01
2018-05-03T04:45:55.755Z,13.92
2018-05-03T04:46:55.875Z,13.96
2018-05-03T04:47:55.764Z,13.98
2018-05-03T04:48:55.775Z,14.01
2018-05-03T04:49:55.787Z,13.98
2018-05-03T04:50:55.789Z,14.01
2018-05-03T04:51:55.802Z,14.07
2018-05-03T04:52:55.812Z,14.07
2018-05-03T04:53:55.837Z,14.12
2018-05-03T04:54:55.844Z,14.13
2018-05-03T04:55:55.842Z,14.14
2018-05-03T04:56:55.857Z,14.17
2018-05-03T04:57:55.922Z,14.14
2018-05-03T04:58:55.875Z,14.13
2018-05-03T04:59:55.883Z,14.14
2018-05-03T05:00:55.895Z,14.20
2018-05-03T05:01:55.904Z,14.12
2018-05-03T05:02:55.912Z,14.25
2018-05-03T05:03:55.924Z,14.14
2018-05-03T05:04:55.945Z,14.27
2018-05-03T05:05:55.963Z,14.27
2018-05-03T05:06:55.956Z,14.34
2018-05-03T05:07:55.967Z,14.28
2018-05-03T05:08:55.980Z,14.28
2018-05-03T05:09:56.006Z,14.27
2018-05-03T05:10:55.998Z,14.25
2018-05-03T05:11:56.029Z,14.21
2018-05-03T05:12:56.032Z,14.27
2018-05-03T05:13:56.036Z,14.27
2018-05-03T05:14:56.042Z,14.32
2018-05-03T05:15:56.123Z,14.28
2018-05-03T05:16:56.061Z,14.19
2018-05-03T05:17:56.106Z,14.27
2018-05-03T05:18:56.083Z,14.28
2018-05-03T05:19:56.098Z,14.25
2018-05-03T05:20:56.107Z,14.21
2018-05-03T05:21:56.143Z,14.34
2018-05-03T05:22:56.129Z,14.31
2018-05-03T05:23:56.146Z,14.31
2018-05-03T05:24:56.149Z,14.31
2018-05-03T05:25:56.160Z,14.31
2018-05-03T05:26:56.168Z,14.32
2018-05-03T05:27:56.179Z,14.32
2018-05-03T05:28:56.210Z,14.29
2018-05-03T05:29:56.201Z,14.37
2018-05-03T05:30:56.219Z,14.32
2018-05-03T05:31:56.228Z,14.29
2018-05-03T05:32:56.234Z,14.28
2018-05-03T05:33:56.248Z,14.32
2018-05-03T05:34:56.275Z,14.20
2018-05-03T05:35:56.268Z,14.21
2018-05-03T05:36:56.276Z,14.24
2018-05-03T05:37:56.313Z,14.32
2018-05-03T05:38:56.330Z,14.17
2018-05-03T05:39:56.308Z,14.27
2018-05-03T05:40:56.320Z,14.24
2018-05-03T05:41:56.329Z,14.32
2018-05-03T05:42:56.342Z,14.27
2018-05-03T05:43:56.401Z,14.28
2018-05-03T05:44:56.362Z,14.21
2018-05-03T05:45:56.371Z,14.24
2018-05-03T05:46:56.380Z,14.24
2018-05-03T05:47:56.395Z,14.28
2018-05-03T05:48:56.405Z,14.37
2018-05-03T05:49:56.428Z,14.31
2018-05-03T05:50:56.511Z,14.35
2018-05-03T05:51:56.469Z,14.35
2018-05-03T05:52:56.447Z,14.31
2018-05-03T05:53:56.460Z,14.29
2018-05-03T05:54:56.465Z,14.37
2018-05-03T05:55:56.477Z,14.31
2018-05-03T05:56:56.490Z,14.37
2018-05-03T05:57:56.505Z,14.32
2018-05-03T05:58:56.521Z,14.29
2018-05-03T05:59:56.525Z,14.25
2018-05-03T06:00:56.531Z,14.32
2018-05-03T06:01:56.546Z,14.24
2018-05-03T06:02:56.557Z,14.25
2018-05-03T06:03:56.572Z,14.29
2018-05-03T06:04:56.574Z,14.27
2018-05-03T06:05:56.585Z,14.28
2018-05-03T06:06:56.633Z,14.21
2018-05-03T06:07:56.607Z,14.21
2018-05-03T06:08:56.625Z,14.29
2018-05-03T06:09:56.706Z,14.20
2018-05-03T06:10:56.637Z,14.29
2018-05-03T06:11:56.662Z,14.31
2018-05-03T06:12:56.685Z,14.27
2018-05-03T06:13:56.675Z,14.29
2018-05-03T06:14:56.708Z,14.27
2018-05-03T06:15:56.707Z,14.31
2018-05-03T06:16:56.769Z,14.27
2018-05-03T06:17:56.920Z,14.35
2018-05-03T06:18:56.725Z,14.35
2018-05-03T06:19:56.738Z,14.32
2018-05-03T06:20:56.748Z,14.34
2018-05-03T06:21:56.826Z,14.32
2018-05-03T06:22:56.768Z,14.39
2018-05-03T06:23:56.780Z,14.46
2018-05-03T06:24:56.824Z,14.44
2018-05-03T06:25:56.880Z,14.39
2018-05-03T06:26:56.814Z,14.38
2018-05-03T06:27:56.824Z,14.37
2018-05-03T06:28:56.837Z,14.44
2018-05-03T06:29:56.846Z,14.37
2018-05-03T06:30:56.855Z,14.38
2018-05-03T06:31:56.868Z,14.43
2018-05-03T06:32:56.874Z,14.43
2018-05-03T06:33:56.897Z,14.44
2018-05-03T06:34:56.901Z,14.37
2018-05-03T06:35:56.907Z,14.46
2018-05-03T06:36:56.916Z,14.44
2018-05-03T06:37:56.931Z,14.42
2018-05-03T06:38:57.029Z,14.52
2018-05-03T06:39:56.948Z,14.50
2018-05-03T06:40:56.962Z,14.46
2018-05-03T06:41:56.975Z,14.54
2018-05-03T06:42:56.980Z,14.43
2018-05-03T06:43:56.992Z,14.37
2018-05-03T06:44:57.002Z,14.37
2018-05-03T06:45:57.014Z,14.49
2018-05-03T06:46:57.039Z,14.49
2018-05-03T06:47:57.069Z,14.39
2018-05-03T06:48:57.049Z,14.46
2018-05-03T06:49:57.058Z,14.54
2018-05-03T06:50:57.991Z,14.54
2018-05-03T06:51:57.088Z,14.53
2018-05-03T06:52:57.092Z,14.57
2018-05-03T06:53:57.099Z,14.60
2018-05-03T06:54:57.117Z,14.65
2018-05-03T06:55:57.123Z,14.61
2018-05-03T06:56:57.135Z,14.64
2018-05-03T06:57:58.007Z,14.71
2018-05-03T06:58:57.155Z,14.78
2018-05-03T06:59:57.284Z,14.81
2018-05-03T07:00:57.183Z,14.88
2018-05-03T07:01:57.186Z,14.93
2018-05-03T07:02:57.199Z,14.87
2018-05-03T07:03:57.359Z,15.01
2018-05-03T07:04:57.221Z,15.02
2018-05-03T07:05:57.233Z,14.87
2018-05-03T07:06:57.240Z,14.98
2018-05-03T07:07:57.254Z,15.02
2018-05-03T07:08:57.261Z,15.13
2018-05-03T07:09:57.304Z,15.09
2018-05-03T07:10:57.288Z,15.19
2018-05-03T07:11:57.327Z,15.21
2018-05-03T07:12:57.311Z,15.28
2018-05-03T07:13:57.322Z,15.38
2018-05-03T07:14:57.331Z,15.45
2018-05-03T07:15:57.341Z,15.43
2018-05-03T07:16:57.388Z,15.43
2018-05-03T07:17:57.378Z,15.59
2018-05-03T07:18:57.374Z,15.51
2018-05-03T07:19:57.391Z,15.63
2018-05-03T07:20:57.398Z,15.63
2018-05-03T07:21:57.409Z,15.61
2018-05-03T07:22:57.432Z,15.66
2018-05-03T07:23:57.431Z,15.66
2018-05-03T07:24:57.444Z,15.67
2018-05-03T07:25:57.483Z,15.78
2018-05-03T07:26:57.466Z,15.78
2018-05-03T07:27:57.479Z,15.76
2018-05-03T07:28:57.496Z,15.75
2018-05-03T07:29:57.502Z,15.72
2018-05-03T07:30:57.517Z,15.75
2018-05-03T07:31:57.523Z,15.78
2018-05-03T07:32:57.536Z,15.86
2018-05-03T07:33:57.546Z,15.92
2018-05-03T07:34:57.556Z,15.86
2018-05-03T07:35:57.579Z,15.82
2018-05-03T07:36:57.587Z,15.88
2018-05-03T07:37:57.593Z,15.96
2018-05-03T07:38:57.612Z,15.96
2018-05-03T07:39:57.617Z,15.97
2018-05-03T07:40:57.700Z,15.86
2018-05-03T07:41:57.641Z,15.94
2018-05-03T07:42:57.655Z,15.89
2018-05-03T07:43:57.664Z,15.94
2018-05-03T07:44:57.687Z,15.94
2018-05-03T07:45:57.690Z,15.93
2018-05-03T07:46:57.698Z,16.00
2018-05-03T07:47:57.714Z,16.06
2018-05-03T07:48:57.858Z,16.04
2018-05-03T07:49:57.734Z,16.03
2018-05-03T07:50:57.746Z,16.07
2018-05-03T07:51:57.841Z,16.15
2018-05-03T07:52:57.774Z,16.14
2018-05-03T07:53:57.791Z,16.16
2018-05-03T07:54:57.893Z,16.14
2018-05-03T07:55:57.859Z,16.16
2018-05-03T07:56:57.815Z,16.18
2018-05-03T07:57:57.833Z,16.22
2018-05-03T07:58:57.840Z,16.26
2018-05-03T07:59:57.852Z,16.30
2018-05-03T08:00:57.863Z,16.26
2018-05-03T08:01:57.898Z,16.22
2018-05-03T08:02:57.892Z,16.31
2018-05-03T08:03:57.912Z,16.16
2018-05-03T08:04:57.915Z,16.16
2018-05-03T08:05:57.923Z,16.18
2018-05-03T08:06:57.935Z,16.18
2018-05-03T08:07:57.951Z,16.34
2018-05-03T08:08:57.963Z,16.30
2018-05-03T08:09:57.972Z,16.45
2018-05-03T08:10:57.994Z,16.37
2018-05-03T08:11:57.995Z,16.44
2018-05-03T08:12:58.011Z,16.56
2018-05-03T08:13:58.021Z,16.37
2018-05-03T08:14:58.032Z,16.40
2018-05-03T08:15:58.048Z,16.40
2018-05-03T08:16:58.071Z,16.41
2018-05-03T08:17:58.080Z,16.42
2018-05-03T08:18:58.127Z,16.48
2018-05-03T08:19:58.293Z,16.30
2018-05-03T08:20:58.105Z,16.49
2018-05-03T08:21:58.137Z,16.48
2018-05-03T08:22:58.161Z,16.49
2018-05-03T08:23:58.148Z,16.56
2018-05-03T08:25:06.006Z,16.65
2018-05-03T08:27:02.830Z,16.83
2018-05-03T08:28:02.886Z,16.90
2018-05-03T08:29:02.863Z,17.08
2018-05-03T08:30:02.874Z,17.14
2018-05-03T08:31:02.806Z,17.29
2018-05-03T08:32:02.951Z,17.33
2018-05-03T08:33:02.826Z,17.41
2018-05-03T08:34:02.858Z,17.46
2018-05-03T08:35:02.844Z,17.44
2018-05-03T08:36:02.862Z,17.53
2018-05-03T08:37:02.872Z,17.48
2018-05-03T08:38:02.895Z,17.51
2018-05-03T08:39:02.925Z,17.59
2018-05-03T08:40:02.918Z,17.63
2018-05-03T08:41:02.924Z,17.54
2018-05-03T08:42:02.943Z,17.22
2018-05-03T08:43:02.952Z,17.22
2018-05-03T08:44:02.959Z,17.30
2018-05-03T08:45:02.976Z,17.51
2018-05-03T08:46:03.011Z,17.55
2018-05-03T08:47:03.004Z,17.57
2018-05-03T08:48:03.031Z,17.59
2018-05-03T08:49:03.029Z,17.84
2018-05-03T08:50:03.043Z,17.73
2018-05-03T08:51:03.052Z,17.84
2018-05-03T08:52:03.067Z,17.82
2018-05-03T08:53:03.076Z,17.67
2018-05-03T08:54:03.096Z,17.44
2018-05-03T08:55:03.157Z,17.73
2018-05-03T08:56:03.224Z,17.74
2018-05-03T08:57:03.129Z,17.82
2018-05-03T08:58:03.173Z,17.53
2018-05-03T08:59:03.189Z,17.76
2018-05-03T09:00:03.170Z,17.66
2018-05-03T09:01:03.184Z,17.73
2018-05-03T09:02:03.197Z,17.85
2018-05-03T09:03:03.255Z,17.84
2018-05-03T09:04:03.228Z,17.97
2018-05-03T09:05:03.234Z,17.99
2018-05-03T09:06:03.250Z,17.94
2018-05-03T09:07:03.289Z,17.69
2018-05-03T09:08:03.285Z,17.79
2018-05-03T09:09:03.293Z,17.41
2018-05-03T09:10:03.303Z,17.46
2018-05-03T09:11:03.321Z,17.43
2018-05-03T09:12:03.329Z,17.47
2018-05-03T09:13:03.342Z,17.41
2018-05-03T09:14:03.356Z,17.62
2018-05-03T09:15:03.396Z,17.73
2018-05-03T09:16:03.383Z,17.85
2018-05-03T09:17:03.407Z,18.09
2018-05-03T09:18:03.409Z,18.13
2018-05-03T09:19:03.429Z,18.13
2018-05-03T09:20:03.441Z,18.29
2018-05-03T09:21:03.473Z,18.31
2018-05-03T09:22:03.464Z,18.47
2018-05-03T09:23:03.479Z,18.57
2018-05-03T09:24:03.493Z,18.62
2018-05-03T09:25:03.504Z,18.82
2018-05-03T09:26:03.529Z,18.61
2018-05-03T09:27:03.548Z,18.73
2018-05-03T09:28:03.546Z,18.90
2018-05-03T09:29:03.594Z,18.99
2018-05-03T09:30:03.574Z,19.10
2018-05-03T09:31:03.589Z,19.21
2018-05-03T09:32:03.605Z,19.01
2018-05-03T09:33:03.614Z,18.86
2018-05-03T09:34:03.625Z,18.92
2018-05-03T09:35:03.660Z,18.83
2018-05-03T09:36:03.655Z,18.87
2018-05-03T09:37:03.676Z,18.87
2018-05-03T09:38:03.681Z,18.84
2018-05-03T09:39:03.775Z,18.84
2018-05-03T09:40:03.715Z,18.99
2018-05-03T09:41:03.731Z,19.05
2018-05-03T09:42:03.745Z,19.29
2018-05-03T09:43:03.756Z,19.40
2018-05-03T09:44:03.770Z,19.28
2018-05-03T09:45:03.785Z,19.43
2018-05-03T09:46:03.801Z,19.43
2018-05-03T09:47:03.809Z,19.50
2018-05-03T09:48:03.829Z,19.58
2018-05-03T09:49:03.841Z,19.66
2018-05-03T09:50:03.854Z,19.76
2018-05-03T09:51:03.878Z,19.94
2018-05-03T09:52:03.884Z,19.94
2018-05-03T09:53:03.901Z,19.91
2018-05-03T09:54:03.934Z,19.87
2018-05-03T09:55:03.940Z,19.91
2018-05-03T09:56:03.945Z,19.98
2018-05-03T09:57:03.956Z,19.93
2018-05-03T09:58:03.972Z,19.73
2018-05-03T09:59:03.995Z,19.79
2018-05-03T10:00:04.025Z,19.66
2018-05-03T10:01:04.017Z,19.75
2018-05-03T10:02:04.032Z,19.78
2018-05-03T10:03:04.043Z,19.91
2018-05-03T10:04:04.079Z,19.87
2018-05-03T10:05:04.082Z,19.79
2018-05-03T10:06:04.095Z,19.76
2018-05-03T10:07:04.101Z,19.68
2018-05-03T10:08:04.135Z,19.72
2018-05-03T10:09:04.141Z,19.88
2018-05-03T10:10:04.146Z,20.09
2018-05-03T10:11:04.165Z,20.09
2018-05-03T10:12:04.187Z,20.15
2018-05-03T10:13:04.205Z,20.05
2018-05-03T10:14:04.210Z,20.13
2018-05-03T10:15:04.236Z,19.95
2018-05-03T10:16:04.238Z,19.93
2018-05-03T10:17:04.252Z,19.95
2018-05-03T10:18:04.264Z,19.93
2018-05-03T10:19:04.289Z,20.15
2018-05-03T10:20:04.295Z,20.03
2018-05-03T10:21:04.320Z,20.18
2018-05-03T10:22:04.406Z,20.15
2018-05-03T10:23:04.340Z,20.28
2018-05-03T10:24:04.363Z,20.43
2018-05-03T10:25:04.377Z,20.56
2018-05-03T10:26:04.387Z,20.54
2018-05-03T10:27:04.403Z,20.46
2018-05-03T10:28:04.417Z,20.49
2018-05-03T10:29:04.431Z,20.49
2018-05-03T10:30:04.449Z,20.56
2018-05-03T10:31:04.459Z,20.65
2018-05-03T10:32:04.474Z,20.64
2018-05-03T10:33:04.496Z,20.68
2018-05-03T10:34:04.529Z,20.76
2018-05-03T10:35:04.519Z,20.99
2018-05-03T10:36:04.550Z,21.05
2018-05-03T10:37:04.556Z,20.86
2018-05-03T10:38:04.603Z,20.99
2018-05-03T10:39:04.580Z,20.91
2018-05-03T10:40:04.597Z,20.74
2018-05-03T10:41:04.638Z,20.71
2018-05-03T10:42:04.721Z,20.56
2018-05-03T10:43:04.690Z,20.56
2018-05-03T10:44:04.656Z,20.08
2018-05-03T10:45:04.672Z,19.93
2018-05-03T10:46:04.691Z,20.24
2018-05-03T10:47:04.709Z,20.12
2018-05-03T10:48:04.717Z,20.18
2018-05-03T10:49:04.813Z,20.25
2018-05-03T10:50:04.748Z,20.25
2018-05-03T10:51:04.764Z,20.30
2018-05-03T10:52:04.813Z,20.47
2018-05-03T10:53:04.808Z,20.71
2018-05-03T10:54:04.840Z,20.69
2018-05-03T10:55:04.828Z,20.76
2018-05-03T10:56:04.850Z,20.81
2018-05-03T10:57:04.854Z,20.27
2018-05-03T10:58:04.868Z,20.51
2018-05-03T10:59:04.890Z,20.47
2018-05-03T11:00:04.909Z,20.65
2018-05-03T11:01:04.916Z,20.54
2018-05-03T11:02:04.934Z,20.71
2018-05-03T11:03:04.953Z,20.71
2018-05-03T11:04:04.990Z,20.64
2018-05-03T11:05:04.978Z,20.53
2018-05-03T11:06:04.990Z,20.27
2018-05-03T11:07:05.008Z,20.24
2018-05-03T11:08:05.021Z,20.16
2018-05-03T11:09:05.037Z,20.33
2018-05-03T11:10:05.059Z,20.49
2018-05-03T11:11:05.178Z,20.53
2018-05-03T11:12:05.084Z,20.51
2018-05-03T11:13:05.104Z,20.56
2018-05-03T11:14:05.123Z,20.56
2018-05-03T11:15:05.139Z,20.58
2018-05-03T11:16:05.155Z,20.49
2018-05-03T11:17:05.160Z,20.62
2018-05-03T11:18:05.175Z,20.49
2018-05-03T11:19:05.191Z,20.66
2018-05-03T11:20:05.237Z,20.53
2018-05-03T11:21:05.219Z,20.72
2018-05-03T11:22:05.240Z,20.59
2018-05-03T11:23:05.248Z,20.99
2018-05-03T11:24:05.265Z,21.32
2018-05-03T11:25:05.284Z,21.76
2018-05-03T11:26:05.297Z,21.98
2018-05-03T11:27:05.313Z,22.38
2018-05-03T11:28:05.327Z,23.14
2018-05-03T11:29:05.342Z,23.46
2018-05-03T11:30:05.364Z,23.98
2018-05-03T11:31:06.186Z,24.32
2018-05-03T11:32:05.391Z,25.05
2018-05-03T11:33:05.445Z,25.57
2018-05-03T11:34:05.428Z,24.79
2018-05-03T11:35:05.440Z,24.54
2018-05-03T11:36:05.460Z,23.97
2018-05-03T11:37:05.480Z,23.76
2018-05-03T11:38:05.495Z,23.26
2018-05-03T11:39:05.523Z,23.04
2018-05-03T11:40:05.531Z,22.71
2018-05-03T11:41:05.550Z,22.57
2018-05-03T11:42:05.567Z,22.49
2018-05-03T11:43:05.583Z,22.16
2018-05-03T11:44:05.601Z,21.97
2018-05-03T11:45:05.621Z,21.69
2018-05-03T11:46:05.640Z,21.99
2018-05-03T11:47:05.667Z,22.37
2018-05-03T11:48:05.674Z,22.44
2018-05-03T11:49:05.694Z,22.07
2018-05-03T11:50:05.708Z,22.07
2018-05-03T11:51:05.727Z,22.13
2018-05-03T11:52:05.740Z,21.71
2018-05-03T11:53:05.761Z,21.75
2018-05-03T11:54:05.786Z,21.90
2018-05-03T11:55:05.802Z,22.09
2018-05-03T11:56:05.815Z,22.01
2018-05-03T11:57:05.832Z,22.06
2018-05-03T11:58:05.845Z,22.16
2018-05-03T11:59:05.977Z,22.29
2018-05-03T12:00:05.882Z,22.39
2018-05-03T12:01:05.899Z,22.57
2018-05-03T12:02:05.918Z,22.83
2018-05-03T12:03:05.930Z,23.02
2018-05-03T12:04:05.947Z,23.22
2018-05-03T12:05:05.963Z,23.53
2018-05-03T12:06:06.040Z,23.27
2018-05-03T12:07:05.999Z,23.26
2018-05-03T12:08:06.017Z,23.19
2018-05-03T12:09:06.049Z,22.67
2018-05-03T12:10:06.051Z,22.68
2018-05-03T12:11:06.071Z,22.43
2018-05-03T12:12:06.085Z,22.50
2018-05-03T12:13:06.103Z,22.13
2018-05-03T12:14:06.121Z,22.25
2018-05-03T12:15:06.133Z,22.27
2018-05-03T12:16:06.159Z,22.19
2018-05-03T12:17:06.461Z,22.09
2018-05-03T12:18:06.188Z,22.20
2018-05-03T12:19:06.205Z,22.19
2018-05-03T12:20:06.220Z,22.19
2018-05-03T12:21:06.237Z,21.82
2018-05-03T12:22:06.263Z,21.90
2018-05-03T12:23:06.270Z,21.88
2018-05-03T12:24:06.289Z,21.83
2018-05-03T12:25:06.306Z,21.75
2018-05-03T12:26:06.320Z,21.72
2018-05-03T12:27:06.366Z,21.54
2018-05-03T12:28:06.392Z,21.34
2018-05-03T12:29:06.418Z,21.27
2018-05-03T12:30:06.431Z,21.27
2018-05-03T12:31:06.409Z,21.29
2018-05-03T12:32:06.423Z,21.27
2018-05-03T12:33:06.438Z,21.19
2018-05-03T12:34:06.454Z,21.09
2018-05-03T12:35:06.468Z,20.98
2018-05-03T12:36:06.484Z,21.08
2018-05-03T12:37:06.563Z,20.83
2018-05-03T12:38:06.518Z,20.84
2018-05-03T12:39:06.532Z,20.87
2018-05-03T12:40:06.564Z,20.81
2018-05-03T12:41:06.568Z,20.74
2018-05-03T12:42:06.586Z,20.79
2018-05-03T12:43:06.593Z,20.49
2018-05-03T12:44:06.624Z,20.31
2018-05-03T12:45:06.637Z,20.20
2018-05-03T12:46:06.665Z,20.18
2018-05-03T12:47:06.656Z,20.10
2018-05-03T12:48:06.673Z,20.23
2018-05-03T12:49:06.691Z,20.33
2018-05-03T12:50:06.705Z,20.38
2018-05-03T12:51:06.715Z,20.43
2018-05-03T12:52:07.741Z,20.15
2018-05-03T12:53:07.789Z,20.10
2018-05-03T12:54:06.804Z,20.21
2018-05-03T12:55:06.778Z,20.27
2018-05-03T12:56:06.945Z,20.47
2018-05-03T12:57:06.913Z,20.58
2018-05-03T12:58:06.825Z,20.65
2018-05-03T12:59:06.837Z,20.61
2018-05-03T13:00:06.851Z,20.72